createdAt,value
2018-01-24T00:00:37.897Z,101159.16
2018-01-24T00:03:05.342Z,101156.98
2018-01-24T00:05:33.097Z,101147.61
2018-01-24T00:08:00.536Z,101148.43
2018-01-24T00:10:27.973Z,101149.42
2018-01-24T00:12:55.455Z,101139.89
2018-01-24T00:15:22.895Z,101144.03
2018-01-24T00:17:50.624Z,101152.48
2018-01-24T00:20:18.073Z,101154.06
2018-01-24T00:22:45.541Z,101151.89
2018-01-24T00:25:13.005Z,101157.38
2018-01-24T00:27:40.473Z,101155.24
2018-01-24T00:30:07.968Z,101158.22
2018-01-24T00:32:35.408Z,101154.20
2018-01-24T00:35:02.853Z,101150.31
2018-01-24T00:37:30.320Z,101148.83
2018-01-24T00:39:57.777Z,101151.17
2018-01-24T00:42:25.233Z,101144.12
2018-01-24T00:44:52.668Z,101152.09
2018-01-24T00:47:20.110Z,101147.19
2018-01-24T00:49:47.569Z,101141.87
2018-01-24T00:52:15.009Z,101144.63
2018-01-24T00:54:42.672Z,101141.39
2018-01-24T00:57:10.113Z,101143.83
2018-01-24T00:59:37.548Z,101137.66
2018-01-24T01:02:05.048Z,101140.89
2018-01-24T01:04:32.469Z,101143.02
2018-01-24T01:06:59.929Z,101147.05
2018-01-24T01:09:27.365Z,101142.09
2018-01-24T01:11:54.801Z,101140.80
2018-01-24T01:14:22.257Z,101145.06
2018-01-24T01:16:49.693Z,101147.64
2018-01-24T01:19:17.264Z,101150.02
2018-01-24T01:21:44.711Z,101138.08
2018-01-24T01:24:12.145Z,101143.42
2018-01-24T01:26:39.625Z,101141.88
2018-01-24T01:29:07.064Z,101138.23
2018-01-24T01:31:34.818Z,101150.59
2018-01-24T01:34:02.256Z,101148.42
2018-01-24T01:36:29.692Z,101146.70
2018-01-24T01:38:57.148Z,101142.34
2018-01-24T01:41:24.593Z,101143.45
2018-01-24T01:43:52.305Z,101145.84
2018-01-24T01:46:19.748Z,101144.38
2018-01-24T01:48:47.185Z,101142.47
2018-01-24T01:51:14.648Z,101131.98
2018-01-24T01:53:42.085Z,101130.30
2018-01-24T01:56:09.569Z,101123.17
2018-01-24T01:58:37.009Z,101116.11
2018-01-24T02:01:04.517Z,101118.08
2018-01-24T02:03:32.116Z,101113.00
2018-01-24T02:05:59.562Z,101118.28
2018-01-24T02:08:27.040Z,101121.19
2018-01-24T02:10:54.483Z,101126.29
2018-01-24T02:13:21.919Z,101130.33
2018-01-24T02:15:49.389Z,101125.34
2018-01-24T02:18:16.834Z,101128.57
2018-01-24T02:20:44.393Z,101126.41
2018-01-24T02:23:11.829Z,101134.92
2018-01-24T02:25:39.270Z,101140.28
2018-01-24T02:28:06.726Z,101131.83
2018-01-24T02:30:34.168Z,101133.21
2018-01-24T02:33:01.752Z,101129.23
2018-01-24T02:35:29.193Z,101135.42
2018-01-24T02:37:56.665Z,101136.16
2018-01-24T02:40:24.122Z,101131.33
2018-01-24T02:42:51.556Z,101128.39
2018-01-24T02:45:19.336Z,101129.65
2018-01-24T02:47:46.773Z,101128.76
2018-01-24T02:50:14.209Z,101126.56
2018-01-24T02:52:41.724Z,101117.63
2018-01-24T02:55:09.140Z,101119.44
2018-01-24T02:57:36.645Z,101114.97
2018-01-24T03:00:04.081Z,101114.02
2018-01-24T03:02:31.521Z,101113.27
2018-01-24T03:04:59.000Z,101113.00
2018-01-24T03:07:26.443Z,101113.36
2018-01-24T03:09:54.310Z,101109.80
2018-01-24T03:12:21.773Z,101111.53
2018-01-24T03:14:49.218Z,101116.72
2018-01-24T03:17:16.682Z,101110.50
2018-01-24T03:19:44.144Z,101104.75
2018-01-24T03:22:11.795Z,101101.68
2018-01-24T03:24:39.237Z,101097.62
2018-01-24T03:27:06.669Z,101091.91
2018-01-24T03:29:34.132Z,101092.45
2018-01-24T03:32:01.605Z,101094.52
2018-01-24T03:34:29.106Z,101102.48
2018-01-24T03:36:56.546Z,101101.89
2018-01-24T03:39:24.018Z,101097.36
2018-01-24T03:41:51.480Z,101091.77
2018-01-24T03:44:18.917Z,101098.08
2018-01-24T03:46:46.773Z,101092.77
2018-01-24T03:49:14.265Z,101096.78
2018-01-24T03:51:41.676Z,101092.28
2018-01-24T03:54:09.225Z,101093.06
2018-01-24T03:56:36.664Z,101098.96
2018-01-24T03:59:04.145Z,101088.58
2018-01-24T04:01:31.589Z,101087.67
2018-01-24T04:03:59.061Z,101085.47
2018-01-24T04:06:26.526Z,101087.70
2018-01-24T04:08:53.961Z,101083.47
2018-01-24T04:11:21.458Z,101078.92
2018-01-24T04:13:48.897Z,101077.52
2018-01-24T04:16:16.328Z,101073.70
2018-01-24T04:18:43.805Z,101067.90
2018-01-24T04:21:11.241Z,101067.55
2018-01-24T04:23:38.716Z,101064.44
2018-01-24T04:26:06.158Z,101055.55
2018-01-24T04:28:33.601Z,101063.70
2018-01-24T04:31:01.069Z,101054.08
2018-01-24T04:33:28.516Z,101057.67
2018-01-24T04:35:56.310Z,101064.14
2018-01-24T04:38:23.748Z,101059.82
2018-01-24T04:40:51.193Z,101064.13
2018-01-24T04:43:18.648Z,101064.86
2018-01-24T04:45:46.085Z,101062.08
2018-01-24T04:48:13.704Z,101062.92
2018-01-24T04:50:41.148Z,101059.82
2018-01-24T04:53:08.589Z,101065.02
2018-01-24T04:55:36.053Z,101061.51
2018-01-24T04:58:03.503Z,101064.43
2018-01-24T05:00:31.135Z,101062.82
2018-01-24T05:02:58.573Z,101067.80
2018-01-24T05:05:26.033Z,101067.33
2018-01-24T05:07:53.505Z,101063.50
2018-01-24T05:10:20.960Z,101063.69
2018-01-24T05:12:48.641Z,101067.80
2018-01-24T05:15:16.077Z,101068.13
2018-01-24T05:17:43.542Z,101077.37
2018-01-24T05:20:11.001Z,101075.30
2018-01-24T05:22:38.448Z,101082.41
2018-01-24T05:25:05.970Z,101080.02
2018-01-24T05:27:34.119Z,101076.33
2018-01-24T05:30:01.597Z,101077.19
2018-01-24T05:32:29.065Z,101078.63
2018-01-24T05:34:56.504Z,101068.70
2018-01-24T05:37:24.159Z,101076.58
2018-01-24T05:39:51.610Z,101079.29
2018-01-24T05:42:19.093Z,101072.09
2018-01-24T05:44:46.552Z,101066.59
2018-01-24T05:47:13.990Z,101068.06
2018-01-24T05:49:41.951Z,101065.03
2018-01-24T05:52:09.389Z,101067.14
2018-01-24T05:54:36.828Z,101064.78
2018-01-24T05:57:04.300Z,101054.23
2018-01-24T05:59:31.788Z,101053.80
2018-01-24T06:01:59.411Z,101051.81
2018-01-24T06:04:26.881Z,101050.38
2018-01-24T06:06:54.350Z,101049.53
2018-01-24T06:09:21.807Z,101053.92
2018-01-24T06:11:49.241Z,101056.92
2018-01-24T06:14:16.734Z,101051.48
2018-01-24T06:16:44.177Z,101059.27
2018-01-24T06:19:11.617Z,101053.55
2018-01-24T06:21:39.246Z,101061.76
2018-01-24T06:24:07.651Z,101052.89
2018-01-24T06:26:35.142Z,101046.48
2018-01-24T06:29:02.589Z,101050.97
2018-01-24T06:31:30.056Z,101045.47
2018-01-24T06:33:57.517Z,101039.80
2018-01-24T06:36:24.972Z,101046.92
2018-01-24T06:38:53.016Z,101041.41
2018-01-24T06:41:20.654Z,101047.91
2018-01-24T06:43:48.097Z,101041.31
2018-01-24T06:46:15.561Z,101046.03
2018-01-24T06:48:43.001Z,101043.11
2018-01-24T06:51:10.640Z,101042.72
2018-01-24T06:53:38.086Z,101041.19
2018-01-24T06:56:05.550Z,101041.39
2018-01-24T06:58:33.005Z,101034.28
2018-01-24T07:01:00.492Z,101039.94
2018-01-24T07:03:28.098Z,101040.09
2018-01-24T07:05:55.543Z,101036.34
2018-01-24T07:08:23.006Z,101040.73
2018-01-24T07:10:50.472Z,101027.45
2018-01-24T07:13:29.755Z,101035.48
2018-01-24T07:15:57.216Z,101034.02
2018-01-24T07:18:24.668Z,101040.13
2018-01-24T07:20:52.274Z,101038.66
2018-01-24T07:23:19.865Z,101045.02
2018-01-24T07:25:47.303Z,101043.23
2018-01-24T07:28:14.777Z,101041.39
2018-01-24T07:30:42.217Z,101038.30
2018-01-24T07:33:09.877Z,101038.31
2018-01-24T07:35:37.355Z,101043.91
2018-01-24T07:38:04.797Z,101043.50
2018-01-24T07:40:32.268Z,101038.07
2018-01-24T07:42:59.717Z,101039.84
2018-01-24T07:45:27.213Z,101041.31
2018-01-24T07:47:54.657Z,101033.40
2018-01-24T07:50:22.101Z,101039.19
2018-01-24T07:52:49.570Z,101033.78
2018-01-24T07:55:18.000Z,101043.11
2018-01-24T07:57:45.484Z,101043.28
2018-01-24T08:00:12.925Z,101046.96
2018-01-24T08:02:40.376Z,101043.85
2018-01-24T08:05:07.841Z,101045.02
2018-01-24T08:07:35.294Z,101052.17
2018-01-24T08:10:02.757Z,101049.72
2018-01-24T08:12:30.233Z,101055.53
2018-01-24T08:14:57.709Z,101048.42
2018-01-24T08:17:25.177Z,101052.52
2018-01-24T08:19:52.617Z,101046.17
2018-01-24T08:22:20.105Z,101050.44
2018-01-24T08:24:47.553Z,101047.05
2018-01-24T08:27:14.997Z,101044.70
2018-01-24T08:29:42.461Z,101053.80
2018-01-24T08:32:09.901Z,101051.91
2018-01-24T08:34:37.825Z,101051.49
2018-01-24T08:37:05.276Z,101052.70
2018-01-24T08:39:32.716Z,101051.94
2018-01-24T08:42:00.185Z,101045.28
2018-01-24T08:44:27.624Z,101048.44
2018-01-24T08:46:55.125Z,101048.17
2018-01-24T08:49:22.576Z,101049.25
2018-01-24T08:51:50.021Z,101048.65
2018-01-24T08:54:17.504Z,101052.55
2018-01-24T08:56:44.953Z,101045.74
2018-01-24T08:59:12.597Z,101043.80
2018-01-24T09:01:40.053Z,101040.84
2018-01-24T09:04:07.505Z,101035.19
2018-01-24T09:06:35.005Z,101035.36
2018-01-24T09:09:02.453Z,101027.48
2018-01-24T09:11:30.279Z,101034.23
2018-01-24T09:13:57.744Z,101028.84
2018-01-24T09:16:25.200Z,101036.09
2018-01-24T09:18:52.667Z,101031.70
2018-01-24T09:21:20.117Z,101025.60
2018-01-24T09:23:47.611Z,101029.86
2018-01-24T09:26:15.067Z,101028.80
2018-01-24T09:28:42.509Z,101030.10
2018-01-24T09:31:09.965Z,101023.36
2018-01-24T09:33:37.425Z,101026.19
2018-01-24T09:36:05.253Z,101020.55
2018-01-24T09:38:32.693Z,101014.11
2018-01-24T09:41:00.237Z,101019.14
2018-01-24T09:43:27.720Z,101016.23
2018-01-24T09:45:55.157Z,101009.77
2018-01-24T09:48:22.637Z,101013.58
2018-01-24T09:50:50.081Z,101012.04
2018-01-24T09:53:17.525Z,101014.88
2018-01-24T09:55:44.985Z,101005.48
2018-01-24T09:58:12.437Z,101001.42
2018-01-24T10:00:39.908Z,101000.95
2018-01-24T10:03:07.353Z,101001.95
2018-01-24T10:05:34.801Z,100998.50
2018-01-24T10:08:02.268Z,101001.59
2018-01-24T10:10:29.709Z,101012.61
2018-01-24T10:12:57.404Z,101004.92
2018-01-24T10:15:24.844Z,101000.65
2018-01-24T10:17:52.293Z,100999.16
2018-01-24T10:20:19.753Z,101002.87
2018-01-24T10:22:47.205Z,100999.53
2018-01-24T10:25:14.685Z,100996.43
2018-01-24T10:27:42.130Z,101000.66
2018-01-24T10:30:09.579Z,100993.10
2018-01-24T10:32:37.065Z,100987.69
2018-01-24T10:35:04.528Z,100992.19
2018-01-24T10:37:32.026Z,100987.38
2018-01-24T10:39:59.469Z,100987.28
2018-01-24T10:42:26.912Z,100980.13
2018-01-24T10:44:54.387Z,100983.83
2018-01-24T10:47:21.877Z,100982.49
2018-01-24T10:49:49.501Z,100979.69
2018-01-24T10:52:16.945Z,100973.98
2018-01-24T10:54:44.394Z,100963.94
2018-01-24T10:57:11.856Z,100963.45
2018-01-24T10:59:39.297Z,100959.08
2018-01-24T11:02:06.913Z,100960.34
2018-01-24T11:04:34.356Z,100955.19
2018-01-24T11:07:01.813Z,100955.58
2018-01-24T11:09:29.276Z,100952.02
2018-01-24T11:11:56.729Z,100949.36
2018-01-24T11:14:24.463Z,100943.44
2018-01-24T11:16:51.902Z,100942.17
2018-01-24T11:19:19.347Z,100938.13
2018-01-24T11:21:46.813Z,100936.75
2018-01-24T11:24:14.253Z,100923.40
2018-01-24T11:26:41.745Z,100924.23
2018-01-24T11:29:09.185Z,100917.52
2018-01-24T11:31:36.638Z,100912.38
2018-01-24T11:34:04.121Z,100921.94
2018-01-24T11:36:31.591Z,100912.30
2018-01-24T11:38:59.312Z,100906.15
2018-01-24T11:41:26.756Z,100901.12
2018-01-24T11:43:54.208Z,100892.78
2018-01-24T11:46:21.695Z,100888.78
2018-01-24T11:48:49.168Z,100879.50
2018-01-24T11:51:16.675Z,100877.63
2018-01-24T11:53:44.112Z,100872.73
2018-01-24T11:56:11.557Z,100865.34
2018-01-24T11:58:39.020Z,100870.56
2018-01-24T12:01:06.464Z,100865.31
2018-01-24T12:03:34.181Z,100861.44
2018-01-24T12:06:01.622Z,100861.09
2018-01-24T12:08:29.069Z,100849.73
2018-01-24T12:10:56.530Z,100849.80
2018-01-24T12:13:23.975Z,100840.92
2018-01-24T12:15:51.776Z,100831.95
2018-01-24T12:18:19.218Z,100826.98
2018-01-24T12:20:46.656Z,100822.45
2018-01-24T12:23:14.113Z,100815.53
2018-01-24T12:25:41.558Z,100814.57
2018-01-24T12:28:09.205Z,100801.50
2018-01-24T12:30:36.717Z,100801.98
2018-01-24T12:33:04.133Z,100800.50
2018-01-24T12:35:31.596Z,100795.38
2018-01-24T12:37:59.037Z,100797.05
2018-01-24T12:40:26.633Z,100793.34
2018-01-24T12:42:54.090Z,100792.30
2018-01-24T12:45:21.547Z,100784.91
2018-01-24T12:47:49.021Z,100776.45
2018-01-24T12:50:16.604Z,100769.77
2018-01-24T12:52:44.084Z,100770.62
2018-01-24T12:55:11.533Z,100767.20
2018-01-24T12:57:38.993Z,100764.77
2018-01-24T13:00:06.456Z,100756.19
2018-01-24T13:02:33.907Z,100755.24
2018-01-24T13:05:01.391Z,100750.84
2018-01-24T13:07:28.844Z,100745.46
2018-01-24T13:09:56.280Z,100738.96
2018-01-24T13:12:23.747Z,100741.74
2018-01-24T13:14:51.205Z,100732.47
2018-01-24T13:17:18.885Z,100733.85
2018-01-24T13:19:46.328Z,100723.27
2018-01-24T13:22:13.865Z,100719.95
2018-01-24T13:24:41.340Z,100719.34
2018-01-24T13:27:08.776Z,100711.34
2018-01-24T13:29:36.269Z,100705.41
2018-01-24T13:32:03.712Z,100709.50
2018-01-24T13:34:31.154Z,100700.08
2018-01-24T13:36:58.620Z,100703.42
2018-01-24T13:39:26.073Z,100692.37
2018-01-24T13:41:53.858Z,100682.61
2018-01-24T13:44:21.321Z,100686.32
2018-01-24T13:46:48.793Z,100679.44
2018-01-24T13:49:16.299Z,100680.90
2018-01-24T13:51:43.736Z,100673.91
2018-01-24T13:54:11.233Z,100681.34
2018-01-24T13:56:38.673Z,100672.31
2018-01-24T13:59:06.153Z,100671.94
2018-01-24T14:01:33.636Z,100668.88
2018-01-24T14:04:01.092Z,100666.92
2018-01-24T14:06:28.741Z,100662.94
2018-01-24T14:08:56.185Z,100664.48
2018-01-24T14:11:23.629Z,100661.27
2018-01-24T14:13:51.091Z,100656.62
2018-01-24T14:16:18.541Z,100656.95
2018-01-24T14:18:46.053Z,100653.38
2018-01-24T14:21:13.497Z,100655.81
2018-01-24T14:23:40.935Z,100656.16
2018-01-24T14:26:08.413Z,100646.34
2018-01-24T14:28:35.914Z,100645.88
2018-01-24T14:31:03.549Z,100642.59
2018-01-24T14:33:30.994Z,100639.78
2018-01-24T14:35:58.445Z,100633.19
2018-01-24T14:38:25.939Z,100626.19
2018-01-24T14:40:53.425Z,100620.20
2018-01-24T14:43:21.098Z,100621.66
2018-01-24T14:45:48.565Z,100621.09
2018-01-24T14:48:16.065Z,100619.74
2018-01-24T14:50:43.529Z,100621.52
2018-01-24T14:53:10.978Z,100613.47
2018-01-24T14:55:38.581Z,100615.20
2018-01-24T14:58:06.021Z,100608.09
2018-01-24T15:00:33.457Z,100611.02
2018-01-24T15:03:00.967Z,100610.34
2018-01-24T15:05:28.410Z,100604.22
2018-01-24T15:07:56.074Z,100598.09
2018-01-24T15:10:23.513Z,100593.75
2018-01-24T15:12:50.968Z,100585.93
2018-01-24T15:15:18.429Z,100585.06
2018-01-24T15:17:45.880Z,100580.66
2018-01-24T15:20:13.613Z,100577.64
2018-01-24T15:22:41.019Z,100574.94
2018-01-24T15:25:08.491Z,100577.32
2018-01-24T15:27:35.969Z,100574.56
2018-01-24T15:30:03.910Z,100590.11
2018-01-24T15:32:31.767Z,100593.72
2018-01-24T15:34:59.238Z,100583.06
2018-01-24T15:37:26.730Z,100578.38
2018-01-24T15:39:54.197Z,100570.44
2018-01-24T15:42:21.637Z,100557.41
2018-01-24T15:44:49.349Z,100565.69
2018-01-24T15:47:16.798Z,100560.89
2018-01-24T15:49:44.320Z,100558.16
2018-01-24T15:52:11.805Z,100554.17
2018-01-24T15:54:39.262Z,100558.95
2018-01-24T15:57:06.948Z,100553.05
2018-01-24T15:59:34.385Z,100557.50
2018-01-24T16:02:01.856Z,100558.38
2018-01-24T16:04:29.312Z,100563.88
2018-01-24T16:06:56.764Z,100563.91
2018-01-24T16:09:24.637Z,100556.56
2018-01-24T16:11:52.077Z,100558.80
2018-01-24T16:14:19.529Z,100563.97
2018-01-24T16:16:47.000Z,100559.68
2018-01-24T16:19:14.458Z,100562.27
2018-01-24T16:21:42.116Z,100561.45
2018-01-24T16:24:09.566Z,100561.03
2018-01-24T16:26:37.044Z,100555.23
2018-01-24T16:29:04.502Z,100546.89
2018-01-24T16:31:31.953Z,100546.52
2018-01-24T16:33:59.427Z,100542.52
2018-01-24T16:36:26.903Z,100542.23
2018-01-24T16:38:54.349Z,100544.56
2018-01-24T16:41:21.817Z,100548.87
2018-01-24T16:43:49.261Z,100539.72
2018-01-24T16:46:17.109Z,100535.95
2018-01-24T16:48:44.569Z,100528.27
2018-01-24T16:51:12.010Z,100524.39
2018-01-24T16:53:39.479Z,100520.47
2018-01-24T16:56:06.925Z,100521.48
2018-01-24T16:58:34.584Z,100516.98
2018-01-24T17:01:02.045Z,100514.09
2018-01-24T17:03:29.491Z,100518.02
2018-01-24T17:05:56.960Z,100520.58
2018-01-24T17:08:24.413Z,100511.55
2018-01-24T17:10:51.877Z,100512.83
2018-01-24T17:13:19.350Z,100506.05
2018-01-24T17:15:46.804Z,100497.70
2018-01-24T17:18:14.270Z,100506.05
2018-01-24T17:20:41.717Z,100495.45
2018-01-24T17:23:09.160Z,100486.66
2018-01-24T17:25:36.630Z,100495.03
2018-01-24T17:28:04.085Z,100486.55
2018-01-24T17:30:31.537Z,100477.41
2018-01-24T17:32:58.995Z,100462.55
2018-01-24T17:35:26.449Z,100459.36
2018-01-24T17:37:53.896Z,100456.38
2018-01-24T17:40:21.548Z,100457.99
2018-01-24T17:42:49.005Z,100462.40
2018-01-24T17:45:16.444Z,100463.22
2018-01-24T17:47:43.970Z,100471.47
2018-01-24T17:50:11.416Z,100466.89
2018-01-24T17:52:38.857Z,100480.70
2018-01-24T17:55:06.603Z,100472.90
2018-01-24T17:57:34.116Z,100472.73
2018-01-24T18:00:01.537Z,100465.58
2018-01-24T18:02:29.018Z,100467.70
2018-01-24T18:04:56.486Z,100471.30
2018-01-24T18:07:23.952Z,100474.97
2018-01-24T18:09:51.405Z,100482.77
2018-01-24T18:12:19.198Z,100480.87
2018-01-24T18:14:46.640Z,100475.39
2018-01-24T18:17:14.088Z,100475.27
2018-01-24T18:19:41.553Z,100467.09
2018-01-24T18:22:09.000Z,100471.16
2018-01-24T18:24:36.676Z,100462.08
2018-01-24T18:27:04.117Z,100471.30
2018-01-24T18:29:31.569Z,100464.33
2018-01-24T18:31:59.035Z,100461.81
2018-01-24T18:34:26.488Z,100460.75
2018-01-24T18:36:54.275Z,100462.83
2018-01-24T18:39:21.731Z,100458.73
2018-01-24T18:41:49.333Z,100458.16
2018-01-24T18:44:16.806Z,100463.25
2018-01-24T18:46:44.249Z,100460.55
2018-01-24T18:49:11.905Z,100460.52
2018-01-24T18:51:39.354Z,100458.20
2018-01-24T18:54:06.793Z,100461.55
2018-01-24T18:56:34.286Z,100460.78
2018-01-24T18:59:01.725Z,100453.81
2018-01-24T19:01:29.566Z,100453.83
2018-01-24T19:03:57.012Z,100455.98
2018-01-24T19:06:24.465Z,100451.44
2018-01-24T19:08:51.920Z,100456.69
2018-01-24T19:11:19.361Z,100456.12
2018-01-24T19:13:47.157Z,100453.89
2018-01-24T19:16:14.637Z,100452.86
2018-01-24T19:18:42.081Z,100449.28
2018-01-24T19:21:09.559Z,100442.16
2018-01-24T19:23:37.006Z,100444.44
2018-01-24T19:26:04.489Z,100437.47
2018-01-24T19:28:31.936Z,100430.37
2018-01-24T19:30:59.394Z,100431.53
2018-01-24T19:33:26.865Z,100431.97
2018-01-24T19:35:54.310Z,100428.51
2018-01-24T19:38:21.961Z,100425.05
2018-01-24T19:40:49.411Z,100420.30
2018-01-24T19:43:16.866Z,100433.61
2018-01-24T19:45:44.493Z,100429.86
2018-01-24T19:48:12.869Z,100431.97
2018-01-24T19:50:40.530Z,100426.11
2018-01-24T19:53:07.977Z,100429.52
2018-01-24T19:55:35.421Z,100428.05
2018-01-24T19:58:03.654Z,100428.78
2018-01-24T20:00:31.092Z,100424.80
2018-01-24T20:02:58.753Z,100425.98
2018-01-24T20:05:26.482Z,100426.02
2018-01-24T20:07:53.927Z,100423.59
2018-01-24T20:10:21.397Z,100424.72
2018-01-24T20:12:48.857Z,100420.20
2018-01-24T20:15:16.324Z,100419.84
2018-01-24T20:17:43.776Z,100414.72
2018-01-24T20:20:11.238Z,100413.84
2018-01-24T20:22:38.720Z,100422.48
2018-01-24T20:25:06.212Z,100423.25
2018-01-24T20:27:34.013Z,100426.20
2018-01-24T20:30:01.466Z,100431.73
2018-01-24T20:32:28.944Z,100431.35
2018-01-24T20:34:56.422Z,100426.17
2018-01-24T20:37:23.866Z,100432.80
2018-01-24T20:39:51.709Z,100431.78
2018-01-24T20:42:19.152Z,100430.92
2018-01-24T20:44:46.597Z,100433.81
2018-01-24T20:47:14.090Z,100435.80
2018-01-24T20:49:41.585Z,100425.91
2018-01-24T20:52:09.149Z,100429.20
2018-01-24T20:54:36.599Z,100428.62
2018-01-24T20:57:04.072Z,100427.54
2018-01-24T20:59:31.542Z,100428.46
2018-01-24T21:01:58.984Z,100420.37
2018-01-24T21:04:26.465Z,100422.98
2018-01-24T21:06:53.918Z,100414.80
2018-01-24T21:09:21.368Z,100421.88
2018-01-24T21:11:48.829Z,100421.51
2018-01-24T21:14:16.283Z,100418.78
2018-01-24T21:16:43.749Z,100417.10
2018-01-24T21:19:11.189Z,100413.75
2018-01-24T21:21:38.723Z,100414.54
2018-01-24T21:24:06.191Z,100407.07
2018-01-24T21:26:33.641Z,100404.95
2018-01-24T21:29:22.905Z,100414.84
2018-01-24T21:35:03.737Z,100399.64
2018-01-24T21:37:31.181Z,100401.54
2018-01-24T21:39:58.633Z,100395.66
2018-01-24T21:42:26.097Z,100391.31
2018-01-24T21:44:53.541Z,100399.72
2018-01-24T21:47:21.033Z,100394.01
2018-01-24T21:49:48.542Z,100392.35
2018-01-24T21:52:16.005Z,100395.22
2018-01-24T21:54:43.469Z,100403.91
2018-01-24T21:57:10.917Z,100398.84
2018-01-24T21:59:38.514Z,100399.39
2018-01-24T22:02:05.967Z,100400.95
2018-01-24T22:04:33.405Z,100397.55
2018-01-24T22:07:00.876Z,100399.02
2018-01-24T22:09:28.356Z,100396.22
2018-01-24T22:11:55.993Z,100396.30
2018-01-24T22:14:23.433Z,100398.22
2018-01-24T22:16:50.877Z,100392.47
2018-01-24T22:19:18.336Z,100398.86
2018-01-24T22:21:45.780Z,100405.59
2018-01-24T22:24:13.397Z,100393.09
2018-01-24T22:26:40.876Z,100404.02
2018-01-24T22:29:08.335Z,100395.64
2018-01-24T22:31:35.812Z,100403.75
2018-01-24T22:34:03.365Z,100403.64
2018-01-24T22:36:30.833Z,100408.47
2018-01-24T22:38:58.296Z,100410.30
2018-01-24T22:41:25.740Z,100423.62
2018-01-24T22:43:53.210Z,100423.55
2018-01-24T22:46:20.662Z,100420.43
2018-01-24T22:48:48.425Z,100424.54
2018-01-24T22:51:21.416Z,100426.31
2018-01-24T22:53:48.878Z,100426.68
2018-01-24T22:56:16.343Z,100430.55
2018-01-24T22:58:43.790Z,100423.06
2018-01-24T23:01:11.253Z,100417.83
2018-01-24T23:03:38.692Z,100432.73
2018-01-24T23:06:06.458Z,100423.09
2018-01-24T23:08:33.913Z,100426.95
2018-01-24T23:11:01.365Z,100425.50
2018-01-24T23:13:28.838Z,100430.61
2018-01-24T23:15:56.274Z,100425.04
2018-01-24T23:18:23.741Z,100427.73
2018-01-24T23:20:51.192Z,100424.09
2018-01-24T23:23:18.636Z,100428.20
2018-01-24T23:25:46.121Z,100430.64
2018-01-24T23:28:13.570Z,100430.36
2018-01-24T23:30:41.278Z,100436.72
2018-01-24T23:33:08.713Z,100427.70
2018-01-24T23:35:36.153Z,100425.18
2018-01-24T23:38:03.645Z,100426.18
2018-01-24T23:40:31.153Z,100420.75
2018-01-24T23:42:58.600Z,100419.27
2018-01-24T23:45:26.050Z,100422.28
2018-01-24T23:47:53.488Z,100410.53
2018-01-24T23:50:20.956Z,100413.82
2018-01-24T23:52:48.453Z,100417.66
2018-01-24T23:55:15.940Z,100409.56
2018-01-24T23:57:43.407Z,100414.02
